This is the latest recevied weather packets stored in our database for station/object KD8YBJ. If no packets are shown the sender has not sent any weather packets the latest 10 day(s).
| Time | Temp. | Humidity | Pressure | Rain* | Wind** | Luminosity | Snow |
|---|---|---|---|---|---|---|---|
| 1777491328 | 7.22° C | 94% | 1012.4 hPa | 0 mm | - | 174 W/m² | - |
| 1777490128 | 7.22° C | 95% | 1012.6 hPa | 0.51 mm | - | 116 W/m² | - |
| 1777489528 | 6.67° C | 95% | 1012.6 hPa | 0.76 mm | - | 100 W/m² | - |
| 1777485331 | 7.22° C | 95% | 1012.7 hPa | 2.29 mm | - | 107 W/m² | - |
| 1777472716 | 8.89° C | 94% | 1012.7 hPa | 0.25 mm | - | 66 W/m² | - |
| 1777468517 | 8.33° C | 94% | 1012.6 hPa | 1.02 mm | - | 56 W/m² | - |
| 1777461336 | 8.89° C | 90% | 1012.9 hPa | 0 mm | - | 3 W/m² | - |
| 1777458937 | 9.44° C | 89% | 1012.5 hPa | 0 mm | - | 0 W/m² | - |
| 1777456519 | 9.44° C | 90% | 1012.6 hPa | 0 mm | - | 0 W/m² | - |
| 1777455918 | 9.44° C | 90% | 1012.5 hPa | 0 mm | - | 0 W/m² | - |
| 1777455319 | 9.44° C | 90% | 1012.5 hPa | 0 mm | - | 0 W/m² | - |
| 1777446337 | 9.44° C | 91% | 1012.5 hPa | 0 mm | - | 0 W/m² | - |
| 1777445717 | 8.89° C | 91% | 1012.3 hPa | 0 mm | - | 0 W/m² | - |
| 1777440916 | 9.44° C | 90% | 1013.4 hPa | 0 mm | - | 0 W/m² | - |
| 1777439138 | 9.44° C | 89% | 1013.5 hPa | 0 mm | - | 0 W/m² | - |
| 1777434317 | 8.89° C | 91% | 1014 hPa | 0 mm | - | 0 W/m² | - |
| 1777433717 | 8.89° C | 91% | 1013.8 hPa | 0 mm | - | 0 W/m² | - |
| 1777432517 | 8.33° C | 91% | 1014 hPa | 0 mm | - | 0 W/m² | - |
| 1777430718 | 8.89° C | 89% | 1013.7 hPa | 0 mm | - | 0 W/m² | - |
| 1777427716 | 9.44° C | 84% | 1013.3 hPa | 0 mm | - | 0 W/m² | - |
| 1777427116 | 10° C | 83% | 1013.3 hPa | 0 mm | - | 0 W/m² | - |
| 1777426516 | 10° C | 82% | 1013.2 hPa | 0 mm | - | 0 W/m² | - |
| 1777423520 | 10.56° C | 80% | 1013 hPa | 0 mm | - | 2 W/m² | - |
| 1777421717 | 11.67° C | 72% | 1013 hPa | 0 mm | - | 21 W/m² | - |
| 1777419938 | 12.22° C | 70% | 1012.3 hPa | 0 mm | - | 56 W/m² | - |
* Rain latest hour (hover to see other rain measurements)
** Current wind speed in m/s (hover to see current wind gust speed)